Bartlett, Kansas
Current Conditions -  °F | °C
As of 5:52 PM on Wednesday 26 Nov 2014 (Local Time) from KCFV Reporting Station
Clear Clear  
Wind Chill: 32°   Ceiling: Unl
Heat Index: 41°   Visibility: 10mi
Dew Point: 26°   Wind: 17mph
Humidity: 55%   Direction: 320°NW
Pressure: 30.27"   Gusts: NA
Location:  37.05°N, 95.21°W
Report Text: KCFV 262352Z AUTO 32015KT 10SM CLR 05/M03 A3027 RMK AO2 PK WND 34028/2254 SLP254 T00501033 10111 20050 51038
Loading
Personal Weather Stations






























Interactive Weather Map New forecast layout! Learn more

10-Day Weather Forecast

Advertisements
Track Severe Weather on mobile